sensor_id;sensor_type;location;lat;lon;timestamp;temperature;humidity
8400;DHT22;4237;47.030;15.396;2023-03-14T00:01:22;5.20;99.90
8400;DHT22;4237;47.030;15.396;2023-03-14T00:03:51;5.00;99.90
8400;DHT22;4237;47.030;15.396;2023-03-14T00:06:20;4.80;99.90
8400;DHT22;4237;47.030;15.396;2023-03-14T00:08:49;4.70;99.90
8400;DHT22;4237;47.030;15.396;2023-03-14T00:11:20;4.90;99.90
8400;DHT22;4237;47.030;15.396;2023-03-14T00:13:50;5.00;99.90
8400;DHT22;4237;47.030;15.396;2023-03-14T00:16:19;5.00;99.90
8400;DHT22;4237;47.030;15.396;2023-03-14T00:18:48;4.90;99.90
8400;DHT22;4237;47.030;15.396;2023-03-14T00:21:17;4.80;99.90
8400;DHT22;4237;47.030;15.396;2023-03-14T00:23:45;4.60;99.90
8400;DHT22;4237;47.030;15.396;2023-03-14T00:26:19;4.50;99.90
8400;DHT22;4237;47.030;15.396;2023-03-14T00:28:51;4.60;99.90
8400;DHT22;4237;47.030;15.396;2023-03-14T00:31:21;4.50;99.90
8400;DHT22;4237;47.030;15.396;2023-03-14T00:33:51;4.50;99.90
8400;DHT22;4237;47.030;15.396;2023-03-14T00:36:21;4.40;99.90
8400;DHT22;4237;47.030;15.396;2023-03-14T00:38:51;4.20;99.90
8400;DHT22;4237;47.030;15.396;2023-03-14T00:41:22;4.20;99.90
8400;DHT22;4237;47.030;15.396;2023-03-14T00:43:51;4.40;99.90
8400;DHT22;4237;47.030;15.396;2023-03-14T00:46:20;4.40;99.90
8400;DHT22;4237;47.030;15.396;2023-03-14T00:48:49;4.30;99.90
8400;DHT22;4237;47.030;15.396;2023-03-14T00:51:17;4.20;99.90
8400;DHT22;4237;47.030;15.396;2023-03-14T00:53:46;4.30;99.90
8400;DHT22;4237;47.030;15.396;2023-03-14T00:56:15;4.40;99.90
8400;DHT22;4237;47.030;15.396;2023-03-14T00:58:44;4.60;99.90
8400;DHT22;4237;47.030;15.396;2023-03-14T01:01:15;4.60;99.90
8400;DHT22;4237;47.030;15.396;2023-03-14T01:03:46;4.60;99.90
8400;DHT22;4237;47.030;15.396;2023-03-14T01:06:16;4.70;99.90
8400;DHT22;4237;47.030;15.396;2023-03-14T01:08:46;4.80;99.90
8400;DHT22;4237;47.030;15.396;2023-03-14T01:11:27;5.00;99.90
8400;DHT22;4237;47.030;15.396;2023-03-14T01:13:47;4.80;99.90
8400;DHT22;4237;47.030;15.396;2023-03-14T01:16:17;4.70;99.90
8400;DHT22;4237;47.030;15.396;2023-03-14T01:18:47;4.70;99.90
8400;DHT22;4237;47.030;15.396;2023-03-14T01:21:24;4.60;99.90
8400;DHT22;4237;47.030;15.396;2023-03-14T01:23:54;4.50;99.90
8400;DHT22;4237;47.030;15.396;2023-03-14T01:26:25;4.40;99.90
8400;DHT22;4237;47.030;15.396;2023-03-14T01:28:55;4.30;99.90
8400;DHT22;4237;47.030;15.396;2023-03-14T01:31:24;4.20;99.90
8400;DHT22;4237;47.030;15.396;2023-03-14T01:33:53;4.10;99.90
8400;DHT22;4237;47.030;15.396;2023-03-14T01:36:22;4.10;99.90
8400;DHT22;4237;47.030;15.396;2023-03-14T01:38:50;4.20;99.90
8400;DHT22;4237;47.030;15.396;2023-03-14T01:41:21;4.10;99.90
8400;DHT22;4237;47.030;15.396;2023-03-14T01:43:51;4.20;99.90
8400;DHT22;4237;47.030;15.396;2023-03-14T01:46:34;4.20;99.90
8400;DHT22;4237;47.030;15.396;2023-03-14T01:49:28;4.20;99.90
8400;DHT22;4237;47.030;15.396;2023-03-14T01:52:04;4.30;99.90
8400;DHT22;4237;47.030;15.396;2023-03-14T01:54:43;4.10;99.90
8400;DHT22;4237;47.030;15.396;2023-03-14T01:57:41;4.20;99.90
8400;DHT22;4237;47.030;15.396;2023-03-14T02:00:14;4.20;99.90
8400;DHT22;4237;47.030;15.396;2023-03-14T02:02:51;4.20;99.90
8400;DHT22;4237;47.030;15.396;2023-03-14T02:05:25;4.10;99.90
8400;DHT22;4237;47.030;15.396;2023-03-14T02:07:56;4.00;99.90
8400;DHT22;4237;47.030;15.396;2023-03-14T02:10:29;4.00;99.90
8400;DHT22;4237;47.030;15.396;2023-03-14T02:12:59;3.90;99.90
8400;DHT22;4237;47.030;15.396;2023-03-14T02:15:30;3.90;99.90
8400;DHT22;4237;47.030;15.396;2023-03-14T02:18:00;3.80;99.90
8400;DHT22;4237;47.030;15.396;2023-03-14T02:23:10;4.00;99.90
8400;DHT22;4237;47.030;15.396;2023-03-14T02:25:48;3.90;99.90
8400;DHT22;4237;47.030;15.396;2023-03-14T02:28:16;3.90;99.90
8400;DHT22;4237;47.030;15.396;2023-03-14T02:30:45;4.00;99.90
8400;DHT22;4237;47.030;15.396;2023-03-14T02:33:16;4.20;99.90
8400;DHT22;4237;47.030;15.396;2023-03-14T02:35:48;4.10;99.90
8400;DHT22;4237;47.030;15.396;2023-03-14T02:38:42;4.20;99.90
8400;DHT22;4237;47.030;15.396;2023-03-14T02:41:10;4.10;99.90
8400;DHT22;4237;47.030;15.396;2023-03-14T02:43:39;4.10;99.90
8400;DHT22;4237;47.030;15.396;2023-03-14T02:46:09;4.20;99.90
8400;DHT22;4237;47.030;15.396;2023-03-14T02:48:45;4.20;99.90
8400;DHT22;4237;47.030;15.396;2023-03-14T02:51:14;4.30;99.90
8400;DHT22;4237;47.030;15.396;2023-03-14T02:53:43;4.30;99.90
8400;DHT22;4237;47.030;15.396;2023-03-14T02:56:12;4.30;99.90
8400;DHT22;4237;47.030;15.396;2023-03-14T02:58:41;4.40;99.90
8400;DHT22;4237;47.030;15.396;2023-03-14T03:01:09;4.40;99.90
8400;DHT22;4237;47.030;15.396;2023-03-14T03:03:38;4.40;99.90
8400;DHT22;4237;47.030;15.396;2023-03-14T03:06:07;4.50;99.90
8400;DHT22;4237;47.030;15.396;2023-03-14T03:08:35;4.80;99.90
8400;DHT22;4237;47.030;15.396;2023-03-14T03:11:05;5.00;99.90
8400;DHT22;4237;47.030;15.396;2023-03-14T03:13:35;5.00;99.90
8400;DHT22;4237;47.030;15.396;2023-03-14T03:16:04;4.80;99.90
8400;DHT22;4237;47.030;15.396;2023-03-14T03:18:33;4.70;99.90
8400;DHT22;4237;47.030;15.396;2023-03-14T03:21:04;4.90;99.90
8400;DHT22;4237;47.030;15.396;2023-03-14T03:23:33;5.10;99.90
8400;DHT22;4237;47.030;15.396;2023-03-14T03:26:02;5.10;99.90
8400;DHT22;4237;47.030;15.396;2023-03-14T03:28:30;5.20;99.90
8400;DHT22;4237;47.030;15.396;2023-03-14T03:31:05;5.00;99.90
8400;DHT22;4237;47.030;15.396;2023-03-14T03:33:29;4.90;99.90
8400;DHT22;4237;47.030;15.396;2023-03-14T03:35:58;5.00;99.90
8400;DHT22;4237;47.030;15.396;2023-03-14T03:38:26;4.90;99.90
8400;DHT22;4237;47.030;15.396;2023-03-14T03:40:55;5.00;99.90
8400;DHT22;4237;47.030;15.396;2023-03-14T03:43:23;5.00;99.90
8400;DHT22;4237;47.030;15.396;2023-03-14T03:45:52;5.20;99.90
8400;DHT22;4237;47.030;15.396;2023-03-14T03:48:20;5.10;99.90
8400;DHT22;4237;47.030;15.396;2023-03-14T03:50:49;5.00;99.90
8400;DHT22;4237;47.030;15.396;2023-03-14T03:53:17;5.00;99.90
8400;DHT22;4237;47.030;15.396;2023-03-14T03:55:46;5.00;99.90
8400;DHT22;4237;47.030;15.396;2023-03-14T03:58:15;4.90;99.90
8400;DHT22;4237;47.030;15.396;2023-03-14T04:00:43;4.90;99.90
8400;DHT22;4237;47.030;15.396;2023-03-14T04:03:12;4.90;99.90
8400;DHT22;4237;47.030;15.396;2023-03-14T04:05:40;4.90;99.90
8400;DHT22;4237;47.030;15.396;2023-03-14T04:08:09;4.90;99.90
8400;DHT22;4237;47.030;15.396;2023-03-14T04:10:38;5.00;99.90
8400;DHT22;4237;47.030;15.396;2023-03-14T04:13:06;5.10;99.90
8400;DHT22;4237;47.030;15.396;2023-03-14T04:15:35;5.20;99.90
8400;DHT22;4237;47.030;15.396;2023-03-14T04:18:03;5.30;99.90
8400;DHT22;4237;47.030;15.396;2023-03-14T04:20:34;5.30;99.90
8400;DHT22;4237;47.030;15.396;2023-03-14T04:23:03;5.40;99.90
8400;DHT22;4237;47.030;15.396;2023-03-14T04:25:31;5.40;99.90
8400;DHT22;4237;47.030;15.396;2023-03-14T04:28:00;5.60;99.90
8400;DHT22;4237;47.030;15.396;2023-03-14T04:30:29;5.70;99.90
8400;DHT22;4237;47.030;15.396;2023-03-14T04:32:58;5.80;99.90
8400;DHT22;4237;47.030;15.396;2023-03-14T04:35:26;6.00;99.90
8400;DHT22;4237;47.030;15.396;2023-03-14T04:37:55;6.10;99.90
8400;DHT22;4237;47.030;15.396;2023-03-14T04:40:24;6.10;99.90
8400;DHT22;4237;47.030;15.396;2023-03-14T04:42:52;6.30;99.90
8400;DHT22;4237;47.030;15.396;2023-03-14T04:45:21;6.40;99.90
8400;DHT22;4237;47.030;15.396;2023-03-14T04:47:50;6.40;99.90
8400;DHT22;4237;47.030;15.396;2023-03-14T04:50:18;6.30;99.90
8400;DHT22;4237;47.030;15.396;2023-03-14T04:52:47;6.40;99.90
8400;DHT22;4237;47.030;15.396;2023-03-14T04:55:16;6.40;99.90
8400;DHT22;4237;47.030;15.396;2023-03-14T04:57:45;6.40;99.90
8400;DHT22;4237;47.030;15.396;2023-03-14T05:00:14;6.40;99.90
8400;DHT22;4237;47.030;15.396;2023-03-14T05:02:45;6.40;99.90
8400;DHT22;4237;47.030;15.396;2023-03-14T05:05:13;6.50;99.90
8400;DHT22;4237;47.030;15.396;2023-03-14T05:07:42;6.50;99.90
8400;DHT22;4237;47.030;15.396;2023-03-14T05:10:11;6.50;99.90
8400;DHT22;4237;47.030;15.396;2023-03-14T05:12:39;6.60;99.90
8400;DHT22;4237;47.030;15.396;2023-03-14T05:15:09;6.60;99.90
8400;DHT22;4237;47.030;15.396;2023-03-14T05:17:38;6.50;99.90
8400;DHT22;4237;47.030;15.396;2023-03-14T05:20:09;6.50;99.90
8400;DHT22;4237;47.030;15.396;2023-03-14T05:22:40;6.60;99.90
8400;DHT22;4237;47.030;15.396;2023-03-14T05:25:09;6.50;99.90
8400;DHT22;4237;47.030;15.396;2023-03-14T05:27:38;6.60;99.90
8400;DHT22;4237;47.030;15.396;2023-03-14T05:30:09;6.60;99.90
8400;DHT22;4237;47.030;15.396;2023-03-14T05:32:38;6.70;99.90
8400;DHT22;4237;47.030;15.396;2023-03-14T05:35:08;6.80;99.90
8400;DHT22;4237;47.030;15.396;2023-03-14T05:37:36;6.90;99.90
8400;DHT22;4237;47.030;15.396;2023-03-14T05:40:06;6.90;99.90
8400;DHT22;4237;47.030;15.396;2023-03-14T05:42:36;6.90;99.90
8400;DHT22;4237;47.030;15.396;2023-03-14T05:45:06;7.00;99.90
8400;DHT22;4237;47.030;15.396;2023-03-14T05:47:34;7.10;99.90
8400;DHT22;4237;47.030;15.396;2023-03-14T05:50:04;7.20;99.90
8400;DHT22;4237;47.030;15.396;2023-03-14T05:52:32;7.20;99.90
8400;DHT22;4237;47.030;15.396;2023-03-14T05:55:01;7.30;99.90
8400;DHT22;4237;47.030;15.396;2023-03-14T05:57:30;7.40;99.90
8400;DHT22;4237;47.030;15.396;2023-03-14T05:59:58;7.50;99.90
8400;DHT22;4237;47.030;15.396;2023-03-14T06:02:27;7.50;99.90
8400;DHT22;4237;47.030;15.396;2023-03-14T06:04:56;7.60;99.90
8400;DHT22;4237;47.030;15.396;2023-03-14T06:07:24;7.70;99.90
8400;DHT22;4237;47.030;15.396;2023-03-14T06:09:53;7.70;99.90
8400;DHT22;4237;47.030;15.396;2023-03-14T06:12:21;7.80;99.90
8400;DHT22;4237;47.030;15.396;2023-03-14T06:14:50;8.00;99.90
8400;DHT22;4237;47.030;15.396;2023-03-14T06:17:18;8.30;99.90
8400;DHT22;4237;47.030;15.396;2023-03-14T06:19:47;8.40;99.90
8400;DHT22;4237;47.030;15.396;2023-03-14T06:22:16;8.40;99.90
8400;DHT22;4237;47.030;15.396;2023-03-14T06:24:44;8.50;99.90
8400;DHT22;4237;47.030;15.396;2023-03-14T06:27:13;8.60;99.90
8400;DHT22;4237;47.030;15.396;2023-03-14T06:29:42;8.90;99.90
8400;DHT22;4237;47.030;15.396;2023-03-14T06:32:11;9.10;99.90
8400;DHT22;4237;47.030;15.396;2023-03-14T06:34:39;9.30;99.90
8400;DHT22;4237;47.030;15.396;2023-03-14T06:37:08;9.70;99.90
8400;DHT22;4237;47.030;15.396;2023-03-14T06:39:36;10.10;99.90
8400;DHT22;4237;47.030;15.396;2023-03-14T06:42:06;10.90;99.90
8400;DHT22;4237;47.030;15.396;2023-03-14T06:44:35;11.70;99.90
8400;DHT22;4237;47.030;15.396;2023-03-14T06:47:03;12.00;99.90
8400;DHT22;4237;47.030;15.396;2023-03-14T06:49:32;12.30;99.90
8400;DHT22;4237;47.030;15.396;2023-03-14T06:52:01;12.50;99.90
8400;DHT22;4237;47.030;15.396;2023-03-14T06:54:30;13.10;99.90
8400;DHT22;4237;47.030;15.396;2023-03-14T06:56:59;13.20;99.90
8400;DHT22;4237;47.030;15.396;2023-03-14T06:59:27;13.80;99.90
8400;DHT22;4237;47.030;15.396;2023-03-14T07:01:56;13.90;99.90
8400;DHT22;4237;47.030;15.396;2023-03-14T07:04:24;16.10;99.90
8400;DHT22;4237;47.030;15.396;2023-03-14T07:06:53;17.90;99.90
8400;DHT22;4237;47.030;15.396;2023-03-14T07:09:21;19.80;99.90
8400;DHT22;4237;47.030;15.396;2023-03-14T07:11:50;20.70;99.90
8400;DHT22;4237;47.030;15.396;2023-03-14T07:14:19;21.30;99.90
8400;DHT22;4237;47.030;15.396;2023-03-14T07:16:47;22.70;99.90
8400;DHT22;4237;47.030;15.396;2023-03-14T07:19:16;23.10;99.90
8400;DHT22;4237;47.030;15.396;2023-03-14T07:21:45;22.80;99.90
8400;DHT22;4237;47.030;15.396;2023-03-14T07:24:13;23.60;99.90
8400;DHT22;4237;47.030;15.396;2023-03-14T07:26:42;25.40;99.90
8400;DHT22;4237;47.030;15.396;2023-03-14T07:29:11;25.80;99.90
8400;DHT22;4237;47.030;15.396;2023-03-14T07:31:39;24.10;99.90
8400;DHT22;4237;47.030;15.396;2023-03-14T07:34:08;21.50;99.90
8400;DHT22;4237;47.030;15.396;2023-03-14T07:36:37;20.10;99.90
8400;DHT22;4237;47.030;15.396;2023-03-14T07:39:05;19.00;99.90
8400;DHT22;4237;47.030;15.396;2023-03-14T07:41:34;18.10;99.90
8400;DHT22;4237;47.030;15.396;2023-03-14T07:44:03;17.70;99.90
8400;DHT22;4237;47.030;15.396;2023-03-14T07:46:31;18.00;99.90
8400;DHT22;4237;47.030;15.396;2023-03-14T07:49:00;18.20;99.90
8400;DHT22;4237;47.030;15.396;2023-03-14T07:51:29;19.20;99.90
8400;DHT22;4237;47.030;15.396;2023-03-14T07:53:57;20.80;99.90
8400;DHT22;4237;47.030;15.396;2023-03-14T07:56:26;23.10;99.90
8400;DHT22;4237;47.030;15.396;2023-03-14T07:58:54;25.00;99.90
8400;DHT22;4237;47.030;15.396;2023-03-14T08:01:23;25.30;99.90
8400;DHT22;4237;47.030;15.396;2023-03-14T08:03:51;25.20;99.90
8400;DHT22;4237;47.030;15.396;2023-03-14T08:06:20;26.40;99.90
8400;DHT22;4237;47.030;15.396;2023-03-14T08:08:49;28.40;99.90
8400;DHT22;4237;47.030;15.396;2023-03-14T08:11:17;28.80;99.90
8400;DHT22;4237;47.030;15.396;2023-03-14T08:13:46;30.30;97.10
8400;DHT22;4237;47.030;15.396;2023-03-14T08:16:18;30.80;93.90
8400;DHT22;4237;47.030;15.396;2023-03-14T08:18:47;31.60;92.40
8400;DHT22;4237;47.030;15.396;2023-03-14T08:21:15;32.50;90.50
8400;DHT22;4237;47.030;15.396;2023-03-14T08:23:44;32.90;89.10
8400;DHT22;4237;47.030;15.396;2023-03-14T08:26:12;32.80;88.70
8400;DHT22;4237;47.030;15.396;2023-03-14T08:28:41;32.60;87.50
8400;DHT22;4237;47.030;15.396;2023-03-14T08:31:10;31.10;88.90
8400;DHT22;4237;47.030;15.396;2023-03-14T08:33:38;27.70;92.10
8400;DHT22;4237;47.030;15.396;2023-03-14T08:36:07;25.00;98.00
8400;DHT22;4237;47.030;15.396;2023-03-14T08:38:36;23.50;99.90
8400;DHT22;4237;47.030;15.396;2023-03-14T08:41:05;24.20;99.90
8400;DHT22;4237;47.030;15.396;2023-03-14T08:43:36;25.60;99.90
8400;DHT22;4237;47.030;15.396;2023-03-14T08:46:05;27.30;98.50
8400;DHT22;4237;47.030;15.396;2023-03-14T08:48:33;28.10;95.60
8400;DHT22;4237;47.030;15.396;2023-03-14T08:51:11;27.90;95.10
8400;DHT22;4237;47.030;15.396;2023-03-14T08:53:40;28.60;96.20
8400;DHT22;4237;47.030;15.396;2023-03-14T08:56:09;30.00;93.40
8400;DHT22;4237;47.030;15.396;2023-03-14T08:58:38;29.60;91.60
8400;DHT22;4237;47.030;15.396;2023-03-14T09:01:10;25.50;96.90
8400;DHT22;4237;47.030;15.396;2023-03-14T09:03:38;23.50;99.90
8400;DHT22;4237;47.030;15.396;2023-03-14T09:06:09;21.00;99.90
8400;DHT22;4237;47.030;15.396;2023-03-14T09:08:38;19.90;99.90
8400;DHT22;4237;47.030;15.396;2023-03-14T09:11:08;19.10;99.90
8400;DHT22;4237;47.030;15.396;2023-03-14T09:13:36;18.70;99.90
8400;DHT22;4237;47.030;15.396;2023-03-14T09:16:08;19.00;99.90
8400;DHT22;4237;47.030;15.396;2023-03-14T09:18:36;18.90;99.90
8400;DHT22;4237;47.030;15.396;2023-03-14T09:21:05;18.70;99.90
8400;DHT22;4237;47.030;15.396;2023-03-14T09:23:34;18.20;99.90
8400;DHT22;4237;47.030;15.396;2023-03-14T09:26:03;17.60;99.90
8400;DHT22;4237;47.030;15.396;2023-03-14T09:28:31;17.10;99.90
8400;DHT22;4237;47.030;15.396;2023-03-14T09:31:08;17.00;99.90
8400;DHT22;4237;47.030;15.396;2023-03-14T09:33:38;16.80;99.90
8400;DHT22;4237;47.030;15.396;2023-03-14T09:36:07;16.70;99.90
8400;DHT22;4237;47.030;15.396;2023-03-14T09:38:37;16.70;99.90
8400;DHT22;4237;47.030;15.396;2023-03-14T09:41:19;16.40;99.90
8400;DHT22;4237;47.030;15.396;2023-03-14T09:43:44;16.00;99.90
8400;DHT22;4237;47.030;15.396;2023-03-14T09:46:14;15.90;99.90
8400;DHT22;4237;47.030;15.396;2023-03-14T09:48:44;15.70;99.90
8400;DHT22;4237;47.030;15.396;2023-03-14T09:51:15;15.80;99.90
8400;DHT22;4237;47.030;15.396;2023-03-14T09:53:47;15.80;99.90
8400;DHT22;4237;47.030;15.396;2023-03-14T09:56:24;15.80;99.90
8400;DHT22;4237;47.030;15.396;2023-03-14T09:58:58;16.00;99.90
8400;DHT22;4237;47.030;15.396;2023-03-14T10:01:30;16.20;99.90
8400;DHT22;4237;47.030;15.396;2023-03-14T10:04:01;16.30;99.90
8400;DHT22;4237;47.030;15.396;2023-03-14T10:06:31;16.30;99.90
8400;DHT22;4237;47.030;15.396;2023-03-14T10:09:00;16.20;99.90
8400;DHT22;4237;47.030;15.396;2023-03-14T10:11:29;16.40;99.90
8400;DHT22;4237;47.030;15.396;2023-03-14T10:14:09;16.70;99.90
8400;DHT22;4237;47.030;15.396;2023-03-14T10:16:45;17.10;99.90
8400;DHT22;4237;47.030;15.396;2023-03-14T10:19:16;17.70;99.90
8400;DHT22;4237;47.030;15.396;2023-03-14T10:21:52;18.10;99.90
8400;DHT22;4237;47.030;15.396;2023-03-14T10:24:30;19.90;99.90
8400;DHT22;4237;47.030;15.396;2023-03-14T10:27:11;20.70;99.90
8400;DHT22;4237;47.030;15.396;2023-03-14T10:29:37;21.00;99.90
8400;DHT22;4237;47.030;15.396;2023-03-14T10:32:10;21.50;99.90
8400;DHT22;4237;47.030;15.396;2023-03-14T10:34:39;21.90;99.90
8400;DHT22;4237;47.030;15.396;2023-03-14T10:39:50;20.80;99.90
8400;DHT22;4237;47.030;15.396;2023-03-14T10:42:27;19.80;99.90
8400;DHT22;4237;47.030;15.396;2023-03-14T10:45:03;19.20;99.90
8400;DHT22;4237;47.030;15.396;2023-03-14T10:47:33;18.90;99.90
8400;DHT22;4237;47.030;15.396;2023-03-14T10:50:25;19.70;99.90
8400;DHT22;4237;47.030;15.396;2023-03-14T10:52:54;20.30;99.90
8400;DHT22;4237;47.030;15.396;2023-03-14T10:55:24;19.40;99.90
8400;DHT22;4237;47.030;15.396;2023-03-14T10:57:53;19.30;99.90
8400;DHT22;4237;47.030;15.396;2023-03-14T11:00:24;19.20;99.90
8400;DHT22;4237;47.030;15.396;2023-03-14T11:03:15;18.80;99.90
8400;DHT22;4237;47.030;15.396;2023-03-14T11:05:56;18.90;99.90
8400;DHT22;4237;47.030;15.396;2023-03-14T11:11:22;17.90;99.90
8400;DHT22;4237;47.030;15.396;2023-03-14T11:27:35;19.60;99.90
8400;DHT22;4237;47.030;15.396;2023-03-14T11:30:18;20.10;99.70
8400;DHT22;4237;47.030;15.396;2023-03-14T11:32:54;19.60;99.90
8400;DHT22;4237;47.030;15.396;2023-03-14T11:38:11;19.90;99.90
8400;DHT22;4237;47.030;15.396;2023-03-14T11:40:36;20.30;99.90
8400;DHT22;4237;47.030;15.396;2023-03-14T11:43:28;21.60;98.30
8400;DHT22;4237;47.030;15.396;2023-03-14T11:46:01;21.90;97.50
8400;DHT22;4237;47.030;15.396;2023-03-14T11:48:46;20.80;97.80
8400;DHT22;4237;47.030;15.396;2023-03-14T11:51:24;19.80;99.90
8400;DHT22;4237;47.030;15.396;2023-03-14T11:54:02;18.90;99.90
8400;DHT22;4237;47.030;15.396;2023-03-14T11:56:46;18.50;99.90
8400;DHT22;4237;47.030;15.396;2023-03-14T11:59:31;18.40;99.90
8400;DHT22;4237;47.030;15.396;2023-03-14T12:07:23;22.70;98.80
8400;DHT22;4237;47.030;15.396;2023-03-14T12:09:48;23.50;97.60
8400;DHT22;4237;47.030;15.396;2023-03-14T12:12:20;24.60;95.10
8400;DHT22;4237;47.030;15.396;2023-03-14T12:14:58;26.70;91.70
8400;DHT22;4237;47.030;15.396;2023-03-14T12:17:39;29.50;87.00
8400;DHT22;4237;47.030;15.396;2023-03-14T12:20:17;32.20;79.90
8400;DHT22;4237;47.030;15.396;2023-03-14T12:22:55;33.50;77.60
8400;DHT22;4237;47.030;15.396;2023-03-14T12:25:27;33.90;72.10
8400;DHT22;4237;47.030;15.396;2023-03-14T12:33:20;28.80;73.40
8400;DHT22;4237;47.030;15.396;2023-03-14T12:35:52;26.50;78.50
8400;DHT22;4237;47.030;15.396;2023-03-14T12:38:32;23.90;85.20
8400;DHT22;4237;47.030;15.396;2023-03-14T12:41:23;22.80;90.00
8400;DHT22;4237;47.030;15.396;2023-03-14T12:43:52;22.00;90.60
8400;DHT22;4237;47.030;15.396;2023-03-14T12:46:28;21.00;91.70
8400;DHT22;4237;47.030;15.396;2023-03-14T12:49:04;20.40;94.70
8400;DHT22;4237;47.030;15.396;2023-03-14T12:51:40;19.80;95.70
8400;DHT22;4237;47.030;15.396;2023-03-14T12:54:40;19.00;97.00
8400;DHT22;4237;47.030;15.396;2023-03-14T12:59:49;17.90;99.30
8400;DHT22;4237;47.030;15.396;2023-03-14T13:02:20;17.80;99.90
8400;DHT22;4237;47.030;15.396;2023-03-14T13:05:05;17.30;99.90
8400;DHT22;4237;47.030;15.396;2023-03-14T13:15:34;16.20;99.90
8400;DHT22;4237;47.030;15.396;2023-03-14T13:18:14;15.90;99.90
8400;DHT22;4237;47.030;15.396;2023-03-14T13:20:51;15.80;99.90
8400;DHT22;4237;47.030;15.396;2023-03-14T13:23:22;15.80;99.90
8400;DHT22;4237;47.030;15.396;2023-03-14T13:25:52;15.50;99.90
8400;DHT22;4237;47.030;15.396;2023-03-14T13:28:22;15.40;99.90
8400;DHT22;4237;47.030;15.396;2023-03-14T13:30:55;15.30;99.90
8400;DHT22;4237;47.030;15.396;2023-03-14T13:33:25;15.30;99.90
8400;DHT22;4237;47.030;15.396;2023-03-14T13:35:59;15.40;99.90
8400;DHT22;4237;47.030;15.396;2023-03-14T13:38:32;15.40;99.90
8400;DHT22;4237;47.030;15.396;2023-03-14T13:41:06;15.10;99.90
8400;DHT22;4237;47.030;15.396;2023-03-14T13:43:43;15.30;99.90
8400;DHT22;4237;47.030;15.396;2023-03-14T13:46:22;15.20;99.90
8400;DHT22;4237;47.030;15.396;2023-03-14T13:49:04;15.20;99.90
8400;DHT22;4237;47.030;15.396;2023-03-14T13:51:33;15.20;99.90
8400;DHT22;4237;47.030;15.396;2023-03-14T13:54:02;15.20;99.90
8400;DHT22;4237;47.030;15.396;2023-03-14T13:56:32;15.20;99.90
8400;DHT22;4237;47.030;15.396;2023-03-14T13:59:01;15.20;99.90
8400;DHT22;4237;47.030;15.396;2023-03-14T14:01:35;15.40;99.90
8400;DHT22;4237;47.030;15.396;2023-03-14T14:04:09;15.60;99.90
8400;DHT22;4237;47.030;15.396;2023-03-14T14:06:46;15.60;99.90
8400;DHT22;4237;47.030;15.396;2023-03-14T14:09:18;15.80;99.90
8400;DHT22;4237;47.030;15.396;2023-03-14T14:11:52;15.70;99.90
8400;DHT22;4237;47.030;15.396;2023-03-14T14:14:32;16.10;99.90
8400;DHT22;4237;47.030;15.396;2023-03-14T14:17:03;16.20;99.90
8400;DHT22;4237;47.030;15.396;2023-03-14T14:19:34;16.50;99.90
8400;DHT22;4237;47.030;15.396;2023-03-14T14:22:04;16.50;99.90
8400;DHT22;4237;47.030;15.396;2023-03-14T14:24:35;16.30;99.90
8400;DHT22;4237;47.030;15.396;2023-03-14T14:27:18;16.00;99.90
8400;DHT22;4237;47.030;15.396;2023-03-14T14:30:24;15.60;99.90
8400;DHT22;4237;47.030;15.396;2023-03-14T14:32:37;15.50;99.90
8400;DHT22;4237;47.030;15.396;2023-03-14T14:35:09;15.60;99.90
8400;DHT22;4237;47.030;15.396;2023-03-14T14:37:44;16.00;99.90
8400;DHT22;4237;47.030;15.396;2023-03-14T14:40:24;16.10;99.90
8400;DHT22;4237;47.030;15.396;2023-03-14T14:42:54;16.40;99.90
8400;DHT22;4237;47.030;15.396;2023-03-14T14:45:24;16.60;99.90
8400;DHT22;4237;47.030;15.396;2023-03-14T14:50:36;16.60;99.90
8400;DHT22;4237;47.030;15.396;2023-03-14T14:53:22;16.60;99.90
8400;DHT22;4237;47.030;15.396;2023-03-14T14:55:56;16.80;99.90
8400;DHT22;4237;47.030;15.396;2023-03-14T14:58:34;17.00;99.90
8400;DHT22;4237;47.030;15.396;2023-03-14T15:01:10;16.90;99.90
8400;DHT22;4237;47.030;15.396;2023-03-14T15:03:38;16.70;99.90
8400;DHT22;4237;47.030;15.396;2023-03-14T15:06:08;16.50;99.90
8400;DHT22;4237;47.030;15.396;2023-03-14T15:08:38;16.70;99.90
8400;DHT22;4237;47.030;15.396;2023-03-14T15:11:18;16.70;99.90
8400;DHT22;4237;47.030;15.396;2023-03-14T15:13:50;16.70;99.90
8400;DHT22;4237;47.030;15.396;2023-03-14T15:16:27;16.80;99.90
8400;DHT22;4237;47.030;15.396;2023-03-14T15:19:00;16.60;99.90
8400;DHT22;4237;47.030;15.396;2023-03-14T15:21:29;16.20;99.90
8400;DHT22;4237;47.030;15.396;2023-03-14T15:23:58;16.20;99.90
8400;DHT22;4237;47.030;15.396;2023-03-14T15:26:27;15.90;99.90
8400;DHT22;4237;47.030;15.396;2023-03-14T15:28:56;15.90;99.90
8400;DHT22;4237;47.030;15.396;2023-03-14T15:31:25;15.90;99.90
8400;DHT22;4237;47.030;15.396;2023-03-14T15:33:53;15.40;99.90
8400;DHT22;4237;47.030;15.396;2023-03-14T15:36:25;15.10;99.90
8400;DHT22;4237;47.030;15.396;2023-03-14T15:38:55;14.90;99.90
8400;DHT22;4237;47.030;15.396;2023-03-14T15:41:23;15.00;99.90
8400;DHT22;4237;47.030;15.396;2023-03-14T15:43:52;15.00;99.90
8400;DHT22;4237;47.030;15.396;2023-03-14T15:46:22;15.00;99.90
8400;DHT22;4237;47.030;15.396;2023-03-14T15:48:51;15.10;99.90
8400;DHT22;4237;47.030;15.396;2023-03-14T15:51:21;15.40;99.90
8400;DHT22;4237;47.030;15.396;2023-03-14T15:53:50;15.50;99.90
8400;DHT22;4237;47.030;15.396;2023-03-14T15:56:19;15.20;99.90
8400;DHT22;4237;47.030;15.396;2023-03-14T15:58:50;15.10;99.90
8400;DHT22;4237;47.030;15.396;2023-03-14T16:01:19;15.30;99.90
8400;DHT22;4237;47.030;15.396;2023-03-14T16:03:47;15.40;99.90
8400;DHT22;4237;47.030;15.396;2023-03-14T16:06:16;15.40;99.90
8400;DHT22;4237;47.030;15.396;2023-03-14T16:08:45;15.40;99.90
8400;DHT22;4237;47.030;15.396;2023-03-14T16:11:15;15.20;99.90
8400;DHT22;4237;47.030;15.396;2023-03-14T16:13:45;15.10;99.90
8400;DHT22;4237;47.030;15.396;2023-03-14T16:16:14;14.80;99.90
8400;DHT22;4237;47.030;15.396;2023-03-14T16:18:42;14.60;99.90
8400;DHT22;4237;47.030;15.396;2023-03-14T16:21:15;14.50;99.90
8400;DHT22;4237;47.030;15.396;2023-03-14T16:23:43;14.40;99.90
8400;DHT22;4237;47.030;15.396;2023-03-14T16:26:15;14.40;99.90
8400;DHT22;4237;47.030;15.396;2023-03-14T16:28:45;14.30;99.90
8400;DHT22;4237;47.030;15.396;2023-03-14T16:31:16;14.30;99.90
8400;DHT22;4237;47.030;15.396;2023-03-14T16:33:48;14.10;99.90
8400;DHT22;4237;47.030;15.396;2023-03-14T16:36:17;14.10;99.90
8400;DHT22;4237;47.030;15.396;2023-03-14T16:38:46;14.00;99.90
8400;DHT22;4237;47.030;15.396;2023-03-14T16:41:19;14.00;99.90
8400;DHT22;4237;47.030;15.396;2023-03-14T16:43:49;13.90;99.90
8400;DHT22;4237;47.030;15.396;2023-03-14T16:46:20;13.90;99.90
8400;DHT22;4237;47.030;15.396;2023-03-14T16:48:49;13.80;99.90
8400;DHT22;4237;47.030;15.396;2023-03-14T16:51:17;13.70;99.90
8400;DHT22;4237;47.030;15.396;2023-03-14T16:53:46;13.60;99.90
8400;DHT22;4237;47.030;15.396;2023-03-14T16:56:15;13.50;99.90
8400;DHT22;4237;47.030;15.396;2023-03-14T16:58:45;13.40;99.90
8400;DHT22;4237;47.030;15.396;2023-03-14T17:01:16;13.30;99.90
8400;DHT22;4237;47.030;15.396;2023-03-14T17:03:46;13.20;99.90
8400;DHT22;4237;47.030;15.396;2023-03-14T17:06:21;13.10;99.90